Home > Products > Valid Products > TAF

000
FTUS41 KPBZ 230300 AAB
TAFAGC
TAF AMD
KAGC 230346Z 2304/2324 33007KT P6SM BKN025
     FM231800 32007KT P6SM SCT035=



000
FTUS41 KPBZ 230300 AAB
TAFAGC
TAF AMD
KAGC 230346Z 2304/2324 33007KT P6SM BKN025
     FM231800 32007KT P6SM SCT035=



000
FTUS41 KPBZ 230300 AAB
TAFPIT
TAF AMD
KPIT 230303Z 2303/2406 35008KT P6SM BKN020
     FM230900 31007KT P6SM BKN025
     FM231800 32007KT P6SM SCT035=



000
FTUS41 KPBZ 230000 AAA
TAFZZV
TAF AMD
KZZV 230059Z 2301/2324 34007KT P6SM OVC035
     FM231400 28005KT P6SM SCT030=



000
FTUS41 KPBZ 230000 AAA
TAFZZV
TAF AMD
KZZV 230059Z 2301/2324 34007KT P6SM OVC035
     FM231400 28005KT P6SM SCT030=



000
FTUS41 KPBZ 230000 AAA
TAFAGC
TAF AMD
KAGC 230058Z 2301/2324 34007KT P6SM OVC018
     FM230400 33006KT P6SM OVC020
     FM230900 31007KT P6SM BKN025
     FM231800 32007KT P6SM SCT035=



000
FTUS41 KPBZ 230000 AAA
TAFAGC
TAF AMD
KAGC 230058Z 2301/2324 34007KT P6SM OVC018
     FM230400 33006KT P6SM OVC020
     FM230900 31007KT P6SM BKN025
     FM231800 32007KT P6SM SCT035=



000
FTUS41 KPBZ 230000 AAA
TAFPIT
TAF AMD
KPIT 230057Z 2301/2406 34009KT P6SM OVC018
     FM230400 35008KT P6SM OVC020
     FM230900 31007KT P6SM BKN025
     FM231800 32007KT P6SM SCT035=



000
FTUS41 KPBZ 230000 AAA
TAFPIT
TAF AMD
KPIT 230057Z 2301/2406 34009KT P6SM OVC018
     FM230400 35008KT P6SM OVC020
     FM230900 31007KT P6SM BKN025
     FM231800 32007KT P6SM SCT035=



000
FTUS41 KPBZ 222300
TAFPIT
TAF
KPIT 222322Z 2300/2406 35009KT P6SM OVC020
     FM230900 31007KT P6SM BKN025
     FM231800 32007KT P6SM SCT035=



000
FTUS41 KPBZ 222300
TAFZZV
TAF
KZZV 222322Z 2300/2324 34007KT P6SM OVC027
     FM231400 28005KT P6SM SCT030=



000
FTUS41 KPBZ 222300
TAFDUJ
TAF
KDUJ 222322Z 2300/2324 35008KT P6SM OVC012
     FM231200 32008KT P6SM OVC020
     FM232000 32010KT P6SM SCT025=



000
FTUS41 KPBZ 222300
TAFBVI
TAF
KBVI 222322Z 2300/2324 34010KT P6SM OVC018
     FM230200 33007KT P6SM OVC020
     FM230800 32008KT P6SM BKN025
     FM231700 32007KT P6SM SCT035
      AMD NOT SKED 2301/2311=



000
FTUS41 KPBZ 222300
TAFLBE
TAF
KLBE 222322Z 2300/2324 35009KT P6SM OVC020
     FM231500 32006KT P6SM BKN025
     FM232000 30008KT P6SM SCT035=



000
FTUS41 KPBZ 222300
TAFHLG
TAF
KHLG 222322Z 2300/2324 33006KT P6SM OVC020
     FM231700 32007KT P6SM SCT035=



000
FTUS41 KPBZ 222300
TAFAGC
TAF
KAGC 222322Z 2300/2324 33011KT P6SM OVC020
     FM230900 31007KT P6SM BKN025
     FM231800 32007KT P6SM SCT035=



000
FTUS41 KPBZ 222300
TAFMGW
TAF
KMGW 222322Z 2300/2324 33005KT P6SM OVC017
     FM230200 VRB04KT P6SM OVC020
     FM230800 VRB04KT P6SM BKN025
     FM231700 28005KT P6SM SCT035=



000
FTUS41 KPBZ 222000 AAA
TAFPIT
TAF AMD
KPIT 222055Z 2221/2324 33008KT P6SM OVC020
     FM230900 31007KT P6SM BKN025
     FM231800 32007KT P6SM SCT035=



000
FTUS41 KPBZ 221900 AAA
TAFHLG
TAF AMD
KHLG 221901Z 2219/2318 33008G15KT P6SM BKN021
     FM222200 34006KT P6SM OVC021
     FM230100 32004KT P6SM BKN021=



000
FTUS41 KPBZ 221700
TAFPIT
TAF
KPIT 221726Z 2218/2324 34012KT P6SM BKN017
     FM222100 33006KT P6SM OVC020
     FM230900 31007KT P6SM BKN025
     FM231800 32007KT P6SM SCT035=



000
FTUS41 KPBZ 221700
TAFZZV
TAF
KZZV 221726Z 2218/2318 36011KT P6SM OVC023
     FM222300 34005KT P6SM BKN025
     FM230900 32004KT P6SM SCT025=



000
FTUS41 KPBZ 221700
TAFLBE
TAF
KLBE 221726Z 2218/2318 36010KT P6SM OVC011
     FM222300 35009KT P6SM OVC015
     FM231500 32006KT P6SM BKN025=



000
FTUS41 KPBZ 221700
TAFDUJ
TAF
KDUJ 221726Z 2218/2318 35010G15KT P6SM OVC012
     FM222300 35009KT P6SM OVC015
     FM230600 33008KT P6SM OVC007
     FM230900 32009KT P6SM OVC015=



000
FTUS41 KPBZ 221700
TAFMGW
TAF
KMGW 221726Z 2218/2318 33008KT P6SM BKN013
     FM222100 34006KT P6SM OVC015
     FM230100 32004KT P6SM BKN020=



000
FTUS41 KPBZ 221700
TAFPIT
TAF
KPIT 221726Z 2218/2324 34012KT P6SM BKN017
     FM222100 33006KT P6SM OVC020
     FM230900 31007KT P6SM BKN025
     FM231800 32007KT P6SM SCT035=



000
FTUS41 KPBZ 221700
TAFBVI
TAF
KBVI 221726Z 2218/2318 34010KT P6SM OVC016
     FM221900 33010KT P6SM BKN020
     FM230800 32008KT P6SM BKN025=



000
FTUS41 KPBZ 221700
TAFAGC
TAF
KAGC 221726Z 2218/2318 34008G16KT P6SM BKN017
     FM222200 33006KT P6SM OVC020
     FM230900 31007KT P6SM BKN025=



000
FTUS41 KPBZ 221700
TAFHLG
TAF
KHLG 221726Z 2218/2318 33008G15KT P6SM BKN014
     FM222100 34006KT P6SM OVC015
     FM230100 32004KT P6SM BKN020=



000
FTUS41 KPBZ 221700
TAFBVI
TAF
KBVI 221726Z 2218/2318 34010KT P6SM OVC016
     FM221900 33010KT P6SM BKN020
     FM230800 32008KT P6SM BKN025=



000
FTUS41 KPBZ 221700
TAFLBE
TAF
KLBE 221726Z 2218/2318 36010KT P6SM OVC011
     FM222300 35009KT P6SM OVC015
     FM231500 32006KT P6SM BKN025=



000
FTUS41 KPBZ 221700
TAFHLG
TAF
KHLG 221726Z 2218/2318 33008G15KT P6SM BKN014
     FM222100 34006KT P6SM OVC015
     FM230100 32004KT P6SM BKN020=



000
FTUS41 KPBZ 221700
TAFDUJ
TAF
KDUJ 221726Z 2218/2318 35010G15KT P6SM OVC012
     FM222300 35009KT P6SM OVC015
     FM230600 33008KT P6SM OVC007
     FM230900 32009KT P6SM OVC015=



000
FTUS41 KPBZ 221700
TAFZZV
TAF
KZZV 221726Z 2218/2318 36011KT P6SM OVC023
     FM222300 34005KT P6SM BKN025
     FM230900 32004KT P6SM SCT025=



000
FTUS41 KPBZ 221700
TAFAGC
TAF
KAGC 221726Z 2218/2318 34008G16KT P6SM BKN017
     FM222200 33006KT P6SM OVC020
     FM230900 31007KT P6SM BKN025=



000
FTUS41 KPBZ 221700
TAFMGW
TAF
KMGW 221726Z 2218/2318 33008KT P6SM BKN013
     FM222100 34006KT P6SM OVC015
     FM230100 32004KT P6SM BKN020=



000
FTUS41 KPBZ 221400 AAA
TAFBVI
TAF AMD
KBVI 221456Z 2215/2312 34008KT P6SM OVC008
     FM221700 34010KT P6SM OVC015
     FM221900 33010KT P6SM BKN020
     FM230800 32008KT P6SM SCT025=



000
FTUS41 KPBZ 221400 AAA
TAFPIT
TAF AMD
KPIT 221455Z 2215/2318 35010KT P6SM OVC012
     FM221800 34010KT P6SM BKN014
     FM230900 32008KT P6SM SCT025=



000
FTUS41 KPBZ 221300 AAA
TAFHLG
TAF AMD
KHLG 221331Z 2214/2312 34008KT P6SM OVC012
      TEMPO 2214/2216 OVC009
     FM221700 33008KT P6SM BKN025
     FM230900 30005KT P6SM SCT025=



000
FTUS41 KPBZ 221100
TAFZZV
TAF
KZZV 221133Z 2212/2312 33008KT P6SM OVC015
     FM221600 34008KT P6SM BKN025
     FM230400 33005KT P6SM SCT025
     FM230900 00000KT 5SM BR SCT025=



000
FTUS41 KPBZ 221100
TAFPIT
TAF
KPIT 221133Z 2212/2318 34010KT P6SM OVC015
     FM221600 34010KT P6SM BKN025
     FM230900 32008KT P6SM SCT025=



000
FTUS41 KPBZ 221100
TAFLBE
TAF
KLBE 221133Z 2212/2312 34008KT P6SM OVC015
     FM221800 33008KT P6SM BKN020=



000
FTUS41 KPBZ 221100
TAFMGW
TAF
KMGW 221133Z 2212/2312 34008KT P6SM OVC010
      TEMPO 2212/2213 OVC008
     FM221800 33008KT P6SM BKN020=



000
FTUS41 KPBZ 221100
TAFDUJ
TAF
KDUJ 221133Z 2212/2312 02010KT P6SM OVC008
      TEMPO 2212/2213 BKN006
     FM221500 35010KT P6SM OVC015=



000
FTUS41 KPBZ 221100
TAFBVI
TAF
KBVI 221133Z 2212/2312 33008KT P6SM OVC008
     FM221400 34010KT P6SM OVC015
     FM221900 33010KT P6SM BKN020
     FM230800 32008KT P6SM SCT025=



000
FTUS41 KPBZ 221100
TAFHLG
TAF
KHLG 221133Z 2212/2312 34008KT P6SM OVC015
     FM221700 33008KT P6SM BKN025
     FM230900 30005KT P6SM SCT025=



000
FTUS41 KPBZ 221100
TAFAGC
TAF
KAGC 221133Z 2212/2312 34010KT P6SM OVC015
     FM221600 34010KT P6SM BKN025
     FM230900 32008KT P6SM SCT025=



000
FTUS41 KPBZ 220900 AAC
TAFZZV
TAF AMD
KZZV 220923Z 2209/2306 33008KT P6SM OVC010
     FM221700 34008KT P6SM BKN025=



000
FTUS41 KPBZ 220900 AAB
TAFHLG
TAF AMD
KHLG 220923Z 2209/2306 34008KT P6SM OVC010
     FM221800 33010KT P6SM BKN020=



000
FTUS41 KPBZ 220900 AAB
TAFAGC
TAF AMD
KAGC 220923Z 2209/2306 34010KT P6SM OVC010
     FM221800 33010KT P6SM BKN020=



000
FTUS41 KPBZ 220800 AAB
TAFPIT
TAF AMD
KPIT 220856Z 2209/2312 34010KT P6SM OVC010
     FM221800 33010KT P6SM BKN020=



000
FTUS41 KPBZ 220800 AAB
TAFZZV
TAF AMD
KZZV 220820Z 2208/2306 33008KT P6SM OVC010
      TEMPO 2208/2212 5SM BR OVC008
     FM221700 34008KT P6SM BKN025=



000
FTUS41 KPBZ 220800 CCA
TAFAGC
TAF COR
KAGC 220809Z 2208/2306 34010KT P6SM OVC010
      TEMPO 2208/2210 OVC008
     FM221800 33010KT P6SM BKN020=



000
FTUS41 KPBZ 220800 AAA
TAFZZV
TAF AMD
KZZV 220806Z 2208/2306 33008KT P6SM OVC010
      TEMPO 2208/2212 5SM BR
     FM221700 34008KT P6SM BKN025=



000
FTUS41 KPBZ 220800 AAA
TAFMGW
TAF AMD
KMGW 220805Z 2208/2306 31005KT P6SM OVC006
      TEMPO 2208/2209 2SM -SHRA BR
     FM221200 34008KT P6SM OVC010
     FM221800 33010KT P6SM BKN020=



000
FTUS41 KPBZ 220800 AAA
TAFHLG
TAF AMD
KHLG 220804Z 2208/2306 34010KT P6SM OVC008
     FM221100 34008KT P6SM OVC010
     FM221800 33010KT P6SM BKN020=



000
FTUS41 KPBZ 220800 AAA
TAFAGC
TAF AMD
KAGC 220803Z 2208/2306 34010KT P6SM OVC010
     FM221800 33010KT P6SM BKN020=



000
FTUS41 KPBZ 220800 AAA
TAFPIT
TAF AMD
KPIT 220802Z 2208/2312 34010KT P6SM OVC010
     FM221800 33010KT P6SM BKN020=



000
FTUS41 KPBZ 220500 CCA
TAFMGW
TAF COR
KMGW 220524Z 2206/2306 31005KT P6SM OVC006
      TEMPO 2206/2209 3SM -SHRA BR OVC004
     FM221400 34008KT P6SM OVC010
     FM221900 33010KT P6SM BKN020=



000
FTUS41 KPBZ 220500 CCA
TAFMGW
TAF COR
KMGW 220524Z 2206/2306 31005KT P6SM OVC006
      TEMPO 2206/2209 3SM -SHRA BR OVC004
     FM221400 34008KT P6SM OVC010
     FM221900 33010KT P6SM BKN020=



000
FTUS41 KPBZ 220500
TAFDUJ
TAF
KDUJ 220522Z 2206/2306 35005KT P6SM OVC010
     FM220800 35005KT P6SM OVC006
     FM221500 01007KT P6SM OVC015=



000
FTUS41 KPBZ 220500
TAFMGW
TAF
KMGW 220522Z 2206/2306 31005KT P6SM OVC006
      TEMPO 2206/2209 3SM -SHRA BR
     FM221400 34008KT P6SM OVC010
     FM221900 33010KT P6SM BKN020=



000
FTUS41 KPBZ 220500
TAFHLG
TAF
KHLG 220522Z 2206/2306 33008KT P6SM OVC005
      TEMPO 2206/2208 2SM -SHRA BR
     FM221300 34008KT P6SM OVC010
     FM221800 33010KT P6SM BKN020=



000
FTUS41 KPBZ 220500
TAFHLG
TAF
KHLG 220522Z 2206/2306 33008KT P6SM OVC005
      TEMPO 2206/2208 2SM -SHRA BR
     FM221300 34008KT P6SM OVC010
     FM221800 33010KT P6SM BKN020=



000
FTUS41 KPBZ 220500
TAFMGW
TAF
KMGW 220522Z 2206/2306 31005KT P6SM OVC006
      TEMPO 2206/2209 3SM -SHRA BR
     FM221400 34008KT P6SM OVC010
     FM221900 33010KT P6SM BKN020=



000
FTUS41 KPBZ 220500
TAFDUJ
TAF
KDUJ 220522Z 2206/2306 35005KT P6SM OVC010
     FM220800 35005KT P6SM OVC006
     FM221500 01007KT P6SM OVC015=



000
FTUS41 KPBZ 220500
TAFLBE
TAF
KLBE 220522Z 2206/2306 33008KT P6SM OVC006
      TEMPO 2206/2208 3SM -SHRA BR
     FM221300 34008KT P6SM OVC010
     FM221800 33010KT P6SM BKN020
      AMD NOT SKED=



000
FTUS41 KPBZ 220500
TAFAGC
TAF
KAGC 220522Z 2206/2306 33008KT P6SM OVC006
      TEMPO 2206/2208 3SM -SHRA BR OVC004
     FM221300 34008KT P6SM OVC010
     FM221800 33010KT P6SM BKN020=



000
FTUS41 KPBZ 220500
TAFZZV
TAF
KZZV 220522Z 2206/2306 33008KT P6SM SCT007 OVC010
      TEMPO 2206/2210 BKN007
     FM221700 34008KT P6SM BKN025=



000
FTUS41 KPBZ 220500
TAFBVI
TAF
KBVI 220522Z 2206/2306 33008KT P6SM OVC004
      TEMPO 2206/2208 3SM -SHRA BR
     FM221400 34008KT P6SM OVC010
     FM221900 33010KT P6SM BKN020
      AMD NOT SKED=



000
FTUS41 KPBZ 220500
TAFAGC
TAF
KAGC 220522Z 2206/2306 33008KT P6SM OVC006
      TEMPO 2206/2208 3SM -SHRA BR OVC004
     FM221300 34008KT P6SM OVC010
     FM221800 33010KT P6SM BKN020=



000
FTUS41 KPBZ 220500
TAFLBE
TAF
KLBE 220522Z 2206/2306 33008KT P6SM OVC006
      TEMPO 2206/2208 3SM -SHRA BR
     FM221300 34008KT P6SM OVC010
     FM221800 33010KT P6SM BKN020
      AMD NOT SKED=



000
FTUS41 KPBZ 220500
TAFBVI
TAF
KBVI 220522Z 2206/2306 33008KT P6SM OVC004
      TEMPO 2206/2208 3SM -SHRA BR
     FM221400 34008KT P6SM OVC010
     FM221900 33010KT P6SM BKN020
      AMD NOT SKED=



000
FTUS41 KPBZ 220500
TAFPIT
TAF
KPIT 220522Z 2206/2312 33008KT P6SM OVC006
      TEMPO 2206/2208 3SM -SHRA BR
     FM221300 34008KT P6SM OVC010
     FM221800 33010KT P6SM BKN020=



000
FTUS41 KPBZ 220500
TAFZZV
TAF
KZZV 220522Z 2206/2306 33008KT P6SM SCT007 OVC010
      TEMPO 2206/2210 BKN007
     FM221700 34008KT P6SM BKN025=



000
FTUS41 KPBZ 220500
TAFPIT
TAF
KPIT 220522Z 2206/2312 33008KT P6SM OVC006
      TEMPO 2206/2208 3SM -SHRA BR
     FM221300 34008KT P6SM OVC010
     FM221800 33010KT P6SM BKN020=



000
FTUS41 KPBZ 220300 AAA
TAFAGC
TAF AMD
KAGC 220347Z 2204/2224 32008KT P6SM VCSH SCT009 OVC015
      TEMPO 2204/2206 3SM -SHRA BKN009
     FM220600 32005KT 5SM BR VCSH OVC005
     FM221300 33008KT P6SM BKN015 OVC025
     FM221500 33009KT P6SM BKN025
     FM222100 32008KT P6SM BKN035=



000
FTUS41 KPBZ 220300 AAA
TAFAGC
TAF AMD
KAGC 220347Z 2204/2224 32008KT P6SM VCSH SCT009 OVC015
      TEMPO 2204/2206 3SM -SHRA BKN009
     FM220600 32005KT 5SM BR VCSH OVC005
     FM221300 33008KT P6SM BKN015 OVC025
     FM221500 33009KT P6SM BKN025
     FM222100 32008KT P6SM BKN035=



000
FTUS41 KPBZ 220300 AAB
TAFHLG
TAF AMD
KHLG 220344Z 2204/2224 32005KT 3SM BR OVC005
      TEMPO 2204/2207 2SM -DZ BR
     FM221300 33008KT P6SM BKN015 OVC025
     FM221500 33009KT P6SM BKN025
     FM222000 34008KT P6SM BKN035=



000
FTUS41 KPBZ 220300 AAB
TAFHLG
TAF AMD
KHLG 220344Z 2204/2224 32005KT 3SM BR OVC005
      TEMPO 2204/2207 2SM -DZ BR
     FM221300 33008KT P6SM BKN015 OVC025
     FM221500 33009KT P6SM BKN025
     FM222000 34008KT P6SM BKN035=



000
FTUS41 KPBZ 220300 AAA
TAFDUJ
TAF AMD
KDUJ 220315Z 2203/2224 34005KT 5SM BR VCSH OVC006
     FM221300 01006KT P6SM BKN015 OVC025
     FM221600 02008KT P6SM BKN025=



000
FTUS41 KPBZ 220300 AAA
TAFHLG
TAF AMD
KHLG 220312Z 2203/2224 32005KT 6SM BR OVC008
      TEMPO 2203/2207 5SM -DZ BR
     FM221300 33008KT P6SM BKN015 OVC025
     FM221500 33009KT P6SM BKN025
     FM222000 34008KT P6SM BKN035=



000
FTUS41 KPBZ 220300 AAA
TAFLBE
TAF AMD
KLBE 220310Z 2203/2224 31008KT 5SM BR OVC008
      TEMPO 2203/2207 -DZ BR
     FM221600 33009KT P6SM BKN025
      AMD NOT SKED=



000
FTUS41 KPBZ 220300 AAB
TAFPIT
TAF AMD
KPIT 220303Z 2203/2306 33008KT 5SM BR OVC006
      TEMPO 2203/2207 -DZ BR
     FM221300 33008KT P6SM BKN015 OVC025
     FM221500 33009KT P6SM BKN025
     FM222100 32008KT P6SM BKN035=



000
FTUS41 KPBZ 220100 AAA
TAFBVI
TAF AMD
KBVI 220130Z 2202/2224 33006KT P6SM VCSH BKN008 OVC015
     FM220500 32005KT 5SM BR VCSH BKN006 OVC012
     FM221300 33008KT P6SM BKN015 OVC025
     FM221500 33009KT P6SM BKN025
     FM222100 32008KT P6SM BKN035
      AMD NOT SKED 2201/2211=



000
FTUS41 KPBZ 220100 AAA
TAFPIT
TAF AMD
KPIT 220130Z 2202/2306 31008KT P6SM VCSH SCT010 BKN015
      TEMPO 2202/2205 OVC008
     FM220500 32005KT 5SM BR VCSH OVC008
     FM221300 33008KT P6SM BKN015 OVC025
     FM221500 33009KT P6SM BKN025
     FM222100 32008KT P6SM BKN035=



000
FTUS41 KPBZ 212300
TAFHLG
TAF
KHLG 212322Z 2200/2224 31008KT P6SM VCSH BKN015 OVC025
     FM220500 32005KT 5SM BR VCSH BKN008
     FM221300 33008KT P6SM BKN015 OVC025
     FM221500 33009KT P6SM BKN025
     FM222000 34008KT P6SM BKN035=



000
FTUS41 KPBZ 212300
TAFDUJ
TAF
KDUJ 212322Z 2200/2224 31008KT P6SM VCSH BKN015 OVC020
      TEMPO 2200/2203 BKN008 OVC015
     FM220500 34005KT 5SM BR VCSH BKN006
     FM221300 01006KT P6SM BKN015 OVC025
     FM221600 02008KT P6SM BKN025=



000
FTUS41 KPBZ 212300
TAFZZV
TAF
KZZV 212322Z 2200/2224 33008KT P6SM VCSH SCT015 BKN025
     FM220200 32006KT P6SM VCSH BKN015 OVC025
     FM220600 32005KT 5SM BR VCSH BKN008
     FM221300 33008KT P6SM BKN015 OVC025
     FM221500 33009KT P6SM BKN025
     FM221900 34008KT P6SM BKN035=



000
FTUS41 KPBZ 212300
TAFLBE
TAF
KLBE 212322Z 2200/2224 30007KT P6SM VCSH SCT008 BKN025
      TEMPO 2200/2202 4SM -SHRA BR BKN008 OVC020
     FM220200 31008KT P6SM VCSH SCT008 BKN015
      TEMPO 2205/2209 5SM BR BKN008 OVC015
     FM221600 33009KT P6SM BKN025=



000
FTUS41 KPBZ 212300
TAFAGC
TAF
KAGC 212322Z 2200/2224 32008KT P6SM VCSH BKN015 OVC035
      TEMPO 2203/2206 BKN008 OVC015
     FM220600 32005KT 5SM BR VCSH OVC008
     FM221300 33008KT P6SM BKN015 OVC025
     FM221500 33009KT P6SM BKN025
     FM222100 32008KT P6SM BKN035=



000
FTUS41 KPBZ 212300
TAFPIT
TAF
KPIT 212322Z 2200/2306 33011KT P6SM VCSH BKN025 OVC040
     FM220200 31008KT P6SM VCSH SCT010 BKN015
     FM220600 32005KT 5SM BR VCSH OVC008
     FM221300 33008KT P6SM BKN015 OVC025
     FM221500 33009KT P6SM BKN025
     FM222100 32008KT P6SM BKN035=



000
FTUS41 KPBZ 212300
TAFMGW
TAF
KMGW 212322Z 2200/2224 29005KT P6SM VCSH SCT008 BKN020
      TEMPO 2200/2203 BKN008 OVC020
     FM220300 31005KT P6SM VCSH BKN010 OVC020
      TEMPO 2203/2207 5SM BR OVC007
     FM221500 32008KT P6SM BKN025
     FM222200 33007KT P6SM BKN035=



000
FTUS41 KPBZ 212300
TAFBVI
TAF
KBVI 212322Z 2200/2224 33006KT P6SM VCSH BKN008 OVC015
      TEMPO 2200/2203 SCT008 BKN015
     FM220500 32005KT 5SM BR VCSH BKN006 OVC012
     FM221300 33008KT P6SM BKN015 OVC025
     FM221500 33009KT P6SM BKN025
     FM222100 32008KT P6SM BKN035
      AMD NOT SKED 2201/2211=



000
FTUS41 KPBZ 212100 AAB
TAFPIT
TAF AMD
KPIT 212106Z 2121/2224 33011KT P6SM VCSH BKN025 OVC040
      TEMPO 2121/2123 SCT025 OVC040
     FM220200 31008KT P6SM VCSH SCT010 BKN015
     FM220600 32005KT 5SM BR VCSH BKN008
     FM221200 33008KT P6SM BKN015 OVC025
     FM221500 33009KT P6SM BKN025=



000
FTUS41 KPBZ 212000 AAB
TAFMGW
TAF AMD
KMGW 212027Z 2120/2218 29005KT 6SM -SHRA SCT015 BKN045
      TEMPO 2120/2122 2SM SHRA BKN015 OVC035
     FM212300 29005KT P6SM VCSH BKN020
     FM221000 33008KT P6SM BKN015 OVC025
     FM221500 33009KT P6SM BKN025=



000
FTUS41 KPBZ 212000 AAB
TAFAGC
TAF AMD
KAGC 212027Z 2120/2218 32010G15KT P6SM -RA SCT025 OVC040
      TEMPO 2120/2123 BKN025
     FM212300 31008KT 6SM -RA BKN015
     FM220600 32005KT 5SM BR VCSH BKN008
     FM221200 33008KT P6SM BKN015 OVC025
     FM221500 33009KT P6SM BKN025=



000
FTUS41 KPBZ 212000 AAA
TAFHLG
TAF AMD
KHLG 212027Z 2120/2218 33006KT P6SM SCT010 BKN025 OVC040
      TEMPO 2120/2122 SCT025 OVC040
     FM212300 31008KT P6SM VCSH BKN025
     FM220600 32005KT 5SM BR VCSH BKN008
     FM221200 33008KT P6SM BKN015 OVC025
     FM221500 33009KT P6SM BKN025=



000
FTUS41 KPBZ 212000 AAA
TAFPIT
TAF AMD
KPIT 212027Z 2120/2224 32010KT P6SM VCSH BKN015 OVC040
      TEMPO 2120/2123 SCT015 OVC040
     FM220200 31008KT P6SM VCSH SCT010 BKN015
     FM220600 32005KT 5SM BR VCSH BKN008
     FM221200 33008KT P6SM BKN015 OVC025
     FM221500 33009KT P6SM BKN025=



000
FTUS41 KPBZ 212000 AAA
TAFBVI
TAF AMD
KBVI 212027Z 2120/2218 33006KT P6SM SCT005 BKN025
      TEMPO 2120/2121 5SM -SHRA BKN005
     FM212100 31008KT P6SM VCSH BKN020
     FM220500 32005KT 5SM BR VCSH BKN006
     FM221200 33008KT P6SM BKN015 OVC025
     FM221500 33009KT P6SM BKN025=



000
FTUS41 KPBZ 212000 AAA
TAFLBE
TAF AMD
KLBE 212027Z 2120/2218 30010KT P6SM VCSH SCT015 BKN035
      TEMPO 2120/2122 OVC025
     FM220200 31008KT P6SM VCSH SCT010 BKN015
     FM221200 33008KT P6SM BKN015 OVC025
     FM221600 33009KT P6SM BKN025=



000
FTUS41 KPBZ 211900 AAA
TAFMGW
TAF AMD
KMGW 211909Z 2119/2218 29005KT 6SM -SHRA SCT015 BKN045
      TEMPO 2119/2120 3SM -SHRA BKN015
     FM212300 29005KT P6SM VCSH BKN020
     FM221000 33008KT P6SM BKN015 OVC025
     FM221500 33009KT P6SM BKN025=



000
FTUS41 KPBZ 211800 AAA
TAFAGC
TAF AMD
KAGC 211855Z 2119/2218 32010G15KT P6SM -RA BKN025
      TEMPO 2119/2123 BKN015
     FM212300 31008KT 6SM -RA BKN015
     FM220600 32005KT 5SM BR VCSH BKN008
     FM221200 33008KT P6SM BKN015 OVC025
     FM221500 33009KT P6SM BKN025=



000
FTUS41 KPBZ 211700
TAFHLG
TAF
KHLG 211730Z 2118/2218 33006KT P6SM SCT010 BKN035
      TEMPO 2119/2122 5SM -SHRA BKN010
     FM212200 31008KT P6SM VCSH BKN020
     FM220600 32005KT 5SM BR VCSH BKN008
     FM221200 33008KT P6SM BKN015 OVC025
     FM221500 33009KT P6SM BKN025=



000
FTUS41 KPBZ 211700
TAFBVI
TAF
KBVI 211730Z 2118/2218 33006KT P6SM SCT005 BKN025
      TEMPO 2118/2121 5SM -SHRA BKN005
     FM212100 31008KT P6SM VCSH BKN020
     FM220500 32005KT 5SM BR VCSH BKN006
     FM221200 33008KT P6SM BKN015 OVC025
     FM221500 33009KT P6SM BKN025=



000
FTUS41 KPBZ 211700
TAFAGC
TAF
KAGC 211730Z 2118/2218 32010G15KT P6SM VCSH SCT015 BKN035
      TEMPO 2119/2122 3SM -SHRA BKN015
     FM220200 31008KT P6SM VCSH SCT010 BKN015
     FM220600 32005KT 5SM BR VCSH BKN008
     FM221200 33008KT P6SM BKN015 OVC025
     FM221500 33009KT P6SM BKN025=



000
FTUS41 KPBZ 211700
TAFZZV
TAF
KZZV 211730Z 2118/2218 33008KT P6SM SCT015 BKN025
      TEMPO 2119/2121 5SM -SHRA BKN010
     FM212200 31008KT P6SM VCSH BKN020
     FM220600 32005KT 5SM BR VCSH BKN008
     FM221200 33008KT P6SM BKN015 OVC025
     FM221500 33009KT P6SM BKN025=



000
FTUS41 KPBZ 211700
TAFLBE
TAF
KLBE 211730Z 2118/2218 30010KT P6SM VCSH SCT015 BKN035
      TEMPO 2119/2122 BKN010
     FM220200 31008KT P6SM VCSH SCT010 BKN015
     FM221200 33008KT P6SM BKN015 OVC025
     FM221600 33009KT P6SM BKN025=



000
FTUS41 KPBZ 211700
TAFDUJ
TAF
KDUJ 211730Z 2118/2218 32005KT 6SM -SHRA BR SCT010 BKN035
      TEMPO 2118/2121 5SM -SHRA
     FM220000 31008KT P6SM VCSH BKN015 OVC020
     FM220500 32005KT 5SM BR VCSH BKN006
     FM221200 33006KT P6SM BKN015 OVC025=



000
FTUS41 KPBZ 211700
TAFPIT
TAF
KPIT 211730Z 2118/2224 32010KT P6SM VCSH SCT015 BKN030
      TEMPO 2119/2121 3SM -SHRA BKN015
     FM220200 31008KT P6SM VCSH SCT010 BKN015
     FM220600 32005KT 5SM BR VCSH BKN008
     FM221200 33008KT P6SM BKN015 OVC025
     FM221500 33009KT P6SM BKN025=



000
FTUS41 KPBZ 211700
TAFMGW
TAF
KMGW 211730Z 2118/2218 25005KT 2SM -SHRA SCT006 OVC015
      TEMPO 2118/2120 2SM -SHRA BKN006
     FM212300 29005KT P6SM VCSH BKN020
     FM221000 33008KT P6SM BKN015 OVC025
     FM221500 33009KT P6SM BKN025=



000
FTUS41 KPBZ 211600 AAB
TAFDUJ
TAF AMD
KDUJ 211635Z 2117/2212 29005KT 1SM RA BR SCT010 OVC035
      TEMPO 2117/2119 5SM -SHRA BKN015
     FM220000 31008KT P6SM VCSH BKN015 OVC020
     FM220400 32005KT 5SM BR VCSH BKN008=



000
FTUS41 KPBZ 211600 AAA
TAFBVI
TAF AMD
KBVI 211632Z 2117/2212 33006KT P6SM BKN025 OVC035
      TEMPO 2117/2119 BKN005
     FM212100 31008KT P6SM VCSH BKN020
     FM220000 31008KT P6SM VCSH BKN010 OVC015
     FM220400 32005KT 5SM BR VCSH BKN006=



000
FTUS41 KPBZ 211600 AAC
TAFPIT
TAF AMD
KPIT 211630Z 2117/2218 32010KT P6SM -SHRA SCT015 BKN035
     FM220000 31008KT P6SM VCSH BKN010 OVC015
     FM220400 32005KT 5SM BR VCSH BKN008
     FM221500 33009KT P6SM BKN015 OVC025=



000
FTUS41 KPBZ 211500 AAA
TAFLBE
TAF AMD
KLBE 211507Z 2115/2212 22005KT P6SM SCT010 OVC015
      TEMPO 2115/2117 3SM -SHRA BKN009
     FM211800 26008KT P6SM -SHRA OVC015
     FM212200 29008KT P6SM VCSH BKN020=



000
FTUS41 KPBZ 211500 AAA
TAFAGC
TAF AMD
KAGC 211506Z 2115/2212 28008KT P6SM SCT010 OVC025
      TEMPO 2115/2118 3SM -SHRA
     FM212100 31008KT P6SM VCSH BKN020=



000
FTUS41 KPBZ 211400 AAB
TAFPIT
TAF AMD
KPIT 211435Z 2115/2218 25005KT P6SM BKN010 OVC025
      TEMPO 2115/2116 3SM -SHRA SCT010 OVC025
     FM211600 28008KT P6SM -SHRA OVC015
     FM220000 31008KT P6SM VCSH BKN010 OVC015
     FM220400 32005KT 5SM BR VCSH BKN008
     FM221500 33009KT P6SM BKN015 OVC025=



000
FTUS41 KPBZ 211400 AAA
TAFDUJ
TAF AMD
KDUJ 211424Z 2114/2212 25005KT P6SM VCSH SCT004 OVC015
      TEMPO 2114/2117 3SM -SHRA BR BKN005
     FM211700 29005KT 6SM -SHRA OVC015
     FM212300 33005KT P6SM VCSH BKN020=



000
FTUS41 KPBZ 211400 AAA
TAFHLG
TAF AMD
KHLG 211422Z 2114/2212 25005KT P6SM SCT005 OVC015
      TEMPO 2114/2116 2SM -SHRA BKN004
     FM211600 26008KT P6SM -SHRA OVC015
     FM212100 29008KT P6SM VCSH BKN020=



000
FTUS41 KPBZ 211300 AAA
TAFPIT
TAF AMD
KPIT 211321Z 2113/2218 25005KT P6SM SCT005 OVC015
      TEMPO 2113/2115 3SM BR BKN005
     FM211500 28008KT P6SM -SHRA OVC015
     FM212100 31008KT P6SM VCSH BKN020=



000
FTUS41 KPBZ 211300 AAA
TAFZZV
TAF AMD
KZZV 211320Z 2113/2212 25005KT 2SM BR SCT005 BKN010 OVC015
      TEMPO 2113/2115 5SM -RA BKN005
     FM211500 30008KT P6SM VCSH BKN020=



000
FTUS41 KPBZ 211100
TAFHLG
TAF
KHLG 211136Z 2112/2212 23005KT P6SM SCT008 OVC015
      TEMPO 2112/2113 BKN006
     FM211500 26008KT P6SM -SHRA OVC015
     FM212100 29008KT P6SM VCSH BKN020=



000
FTUS41 KPBZ 211100
TAFMGW
TAF
KMGW 211136Z 2112/2212 22005KT P6SM BKN015
     FM211600 25005KT P6SM -SHRA OVC015
     FM212300 29005KT P6SM VCSH BKN020=



000
FTUS41 KPBZ 211100
TAFZZV
TAF
KZZV 211136Z 2112/2212 25005KT 3SM BR SCT015 BKN025
      TEMPO 2112/2114 BKN015
     FM211400 30008KT P6SM VCSH BKN020=



000
FTUS41 KPBZ 211100
TAFDUJ
TAF
KDUJ 211136Z 2112/2212 25005KT 5SM -SHRA BR SCT004 OVC008
      TEMPO 2112/2114 3SM -SHRA BR BKN002
     FM211400 29005KT 6SM -SHRA OVC015
     FM212300 33005KT P6SM VCSH BKN020=



000
FTUS41 KPBZ 211100
TAFMGW
TAF
KMGW 211136Z 2112/2212 22005KT P6SM BKN015
     FM211600 25005KT P6SM -SHRA OVC015
     FM212300 29005KT P6SM VCSH BKN020=



000
FTUS41 KPBZ 211100
TAFHLG
TAF
KHLG 211136Z 2112/2212 23005KT P6SM SCT008 OVC015
      TEMPO 2112/2113 BKN006
     FM211500 26008KT P6SM -SHRA OVC015
     FM212100 29008KT P6SM VCSH BKN020=



000
FTUS41 KPBZ 211100
TAFBVI
TAF
KBVI 211136Z 2112/2212 25005KT P6SM BKN008
      TEMPO 2112/2114 2SM RA BKN004
     FM211500 28008KT P6SM -SHRA OVC015
     FM212100 31008KT P6SM VCSH BKN020=



000
FTUS41 KPBZ 211100
TAFAGC
TAF
KAGC 211136Z 2112/2212 23008KT P6SM OVC006
     FM211500 28008KT P6SM -SHRA OVC015
     FM212100 31008KT P6SM VCSH BKN020=



000
FTUS41 KPBZ 211100
TAFPIT
TAF
KPIT 211136Z 2112/2218 25005KT P6SM SCT007 OVC015
      TEMPO 2112/2113 BKN006
     FM211500 28008KT P6SM -SHRA OVC015
     FM212100 31008KT P6SM VCSH BKN020=



000
FTUS41 KPBZ 211100
TAFLBE
TAF
KLBE 211136Z 2112/2212 22005KT P6SM SCT007 OVC010
     FM211500 26008KT P6SM -SHRA OVC015
     FM212200 29008KT P6SM VCSH BKN020=



000
FTUS41 KPBZ 211100
TAFLBE
TAF
KLBE 211136Z 2112/2212 22005KT P6SM SCT007 OVC010
     FM211500 26008KT P6SM -SHRA OVC015
     FM212200 29008KT P6SM VCSH BKN020=



000
FTUS41 KPBZ 211100
TAFPIT
TAF
KPIT 211136Z 2112/2218 25005KT P6SM SCT007 OVC015
      TEMPO 2112/2113 BKN006
     FM211500 28008KT P6SM -SHRA OVC015
     FM212100 31008KT P6SM VCSH BKN020=



000
FTUS41 KPBZ 211100
TAFBVI
TAF
KBVI 211136Z 2112/2212 25005KT P6SM BKN008
      TEMPO 2112/2114 2SM RA BKN004
     FM211500 28008KT P6SM -SHRA OVC015
     FM212100 31008KT P6SM VCSH BKN020=



000
FTUS41 KPBZ 211100
TAFAGC
TAF
KAGC 211136Z 2112/2212 23008KT P6SM OVC006
     FM211500 28008KT P6SM -SHRA OVC015
     FM212100 31008KT P6SM VCSH BKN020=



000
FTUS41 KPBZ 211100
TAFDUJ
TAF
KDUJ 211136Z 2112/2212 25005KT 5SM -SHRA BR SCT004 OVC008
      TEMPO 2112/2114 3SM -SHRA BR BKN002
     FM211400 29005KT 6SM -SHRA OVC015
     FM212300 33005KT P6SM VCSH BKN020=



000
FTUS41 KPBZ 211100
TAFZZV
TAF
KZZV 211136Z 2112/2212 25005KT 3SM BR SCT015 BKN025
      TEMPO 2112/2114 BKN015
     FM211400 30008KT P6SM VCSH BKN020=



000
FTUS41 KPBZ 211000 AAC
TAFLBE
TAF AMD
KLBE 211004Z 2110/2206 22005KT P6SM SCT007 OVC010
      TEMPO 2110/2114 BKN007
     FM211500 26008KT P6SM -SHRA OVC015
     FM212200 29008KT P6SM VCSH BKN020=



000
FTUS41 KPBZ 211000 AAC
TAFLBE
TAF AMD
KLBE 211004Z 2110/2206 22005KT P6SM SCT007 OVC010
      TEMPO 2110/2114 BKN007
     FM211500 26008KT P6SM -SHRA OVC015
     FM212200 29008KT P6SM VCSH BKN020=



000
FTUS41 KPBZ 210900 AAB
TAFZZV
TAF AMD
KZZV 210902Z 2109/2206 25005KT 3SM BR SCT015 BKN025
      TEMPO 2110/2113 BKN015
     FM211400 30008KT P6SM VCSH BKN020=



000
FTUS41 KPBZ 210800 AAB
TAFPIT
TAF AMD
KPIT 210858Z 2109/2212 25005KT P6SM SCT007 BKN015
      TEMPO 2109/2113 BKN007
     FM211500 28008KT P6SM -SHRA OVC015
     FM212100 31008KT P6SM VCSH BKN020=



000
FTUS41 KPBZ 210800 AAA
TAFHLG
TAF AMD
KHLG 210802Z 2108/2206 23005KT P6SM SCT008 BKN015
      TEMPO 2109/2113 BKN008
     FM211500 26008KT P6SM -SHRA OVC015
     FM212100 29008KT P6SM VCSH BKN020=



000
FTUS41 KPBZ 210700 AAA
TAFMGW
TAF AMD
KMGW 210721Z 2107/2206 20005KT P6SM -SHRA BKN025
     FM210800 22003KT P6SM BKN015
     FM211600 25005KT P6SM -SHRA OVC015
     FM212300 29005KT P6SM VCSH BKN020=



000
FTUS41 KPBZ 210700 AAB
TAFLBE
TAF AMD
KLBE 210720Z 2107/2206 23005KT 6SM -SHRA BR OVC015
     FM210900 24005KT P6SM BKN008
     FM211500 26008KT P6SM -SHRA OVC015
     FM212200 29008KT P6SM VCSH BKN020=



000
FTUS41 KPBZ 210700 AAA
TAFLBE
TAF AMD
KLBE 210705Z 2107/2206 22005KT P6SM -SHRA OVC040
     FM210800 23005KT 6SM -SHRA BR OVC015
     FM210900 24005KT P6SM BKN008
     FM211500 26008KT P6SM -SHRA OVC015
     FM212200 29008KT P6SM VCSH BKN020=



000
FTUS41 KPBZ 210700 AAA
TAFPIT
TAF AMD
KPIT 210702Z 2107/2212 22005KT 6SM -SHRA BR SCT007 OVC015
      TEMPO 2107/2108 BKN007
     FM210800 25005KT P6SM BKN007
     FM211500 28008KT P6SM -SHRA OVC015
     FM212100 31008KT P6SM VCSH BKN020=



000
FTUS41 KPBZ 210600 AAA
TAFZZV
TAF AMD
KZZV 210628Z 2106/2206 22003KT P6SM BKN025
     FM210800 25005KT P6SM SCT009 BKN015
      TEMPO 2108/2112 BKN009
     FM211500 30008KT P6SM VCSH BKN020=



000
FTUS41 KPBZ 210500 CCA
TAFZZV
TAF COR
KZZV 210544Z 2106/2206 22003KT P6SM OVC040
     FM210800 25005KT P6SM SCT009 BKN015
      TEMPO 2108/2112 BKN009
     FM211500 30008KT P6SM VCSH BKN020=



000
FTUS41 KPBZ 210500 CCA
TAFLBE
TAF COR
KLBE 210525Z 2106/2206 22005KT P6SM -SHRA OVC040
     FM210700 23005KT 6SM -SHRA BR OVC015
     FM210900 24005KT P6SM BKN008
     FM211500 26008KT P6SM -SHRA OVC015
     FM212200 29008KT P6SM VCSH BKN020=



000
FTUS41 KPBZ 210500
TAFZZV
TAF
KZZV 210522Z 2106/2206 25005KT P6SM SCT009 BKN015
      TEMPO 2108/2112 BKN009
     FM211500 30008KT P6SM VCSH BKN020=



000
FTUS41 KPBZ 210500
TAFDUJ
TAF
KDUJ 210522Z 2106/2206 22005KT P6SM -SHRA BKN015
     FM210700 25005KT 5SM -SHRA BR SCT004 OVC008
      TEMPO 2108/2112 BKN004
     FM211400 29005KT 6SM -SHRA OVC015
     FM212300 33005KT P6SM VCSH BKN020=



000
FTUS41 KPBZ 210500
TAFMGW
TAF
KMGW 210522Z 2106/2206 20005KT 6SM -SHRA BR OVC035
     FM210800 22003KT P6SM BKN015
     FM211600 25005KT P6SM -SHRA OVC015
     FM212300 29005KT P6SM VCSH BKN020=



000
FTUS41 KPBZ 210500
TAFBVI
TAF
KBVI 210522Z 2106/2206 22005KT 6SM -SHRA BR OVC015
     FM210800 25005KT P6SM BKN008
     FM211500 28008KT P6SM -SHRA OVC015
     FM212100 31008KT P6SM VCSH BKN020
      AMD NOT SKED=



000
FTUS41 KPBZ 210500
TAFAGC
TAF
KAGC 210522Z 2106/2206 22005KT 6SM -SHRA BR OVC015
     FM210800 25005KT P6SM BKN008
     FM211500 28008KT P6SM -SHRA OVC015
     FM212100 31008KT P6SM VCSH BKN020=



000
FTUS41 KPBZ 210500
TAFPIT
TAF
KPIT 210522Z 2106/2212 22005KT 6SM -SHRA BR OVC015
     FM210800 25005KT P6SM BKN008
     FM211500 28008KT P6SM -SHRA OVC015
     FM212100 31008KT P6SM VCSH BKN020=



000
FTUS41 KPBZ 210500
TAFLBE
TAF
KLBE 210522Z 2106/2206 22005KT 5SM -SHRA OVC040
     FM210700 23005KT 6SM -SHRA BR OVC015
     FM210900 24005KT P6SM BKN008
     FM211500 26008KT P6SM -SHRA OVC015
     FM212200 29008KT P6SM VCSH BKN020=



000
FTUS41 KPBZ 210500
TAFHLG
TAF
KHLG 210522Z 2106/2206 22005KT 6SM -SHRA BR OVC015
     FM210700 23005KT P6SM BKN008
     FM211500 26008KT P6SM -SHRA OVC015
     FM212100 29008KT P6SM VCSH BKN020=



000
FTUS41 KPBZ 210400 AAA
TAFDUJ
TAF AMD
KDUJ 210430Z 2105/2124 20008KT 6SM -SHRA BR BKN020
     FM210600 22005KT 5SM -SHRA BR VCSH SCT009 OVC015
      TEMPO 2106/2107 OVC009
     FM210700 24006KT 4SM BR VCSH OVC006
     FM211400 27005KT 6SM BR OVC010
     FM211700 29006KT P6SM OVC015=



000
FTUS41 KPBZ 210400 AAA
TAFDUJ
TAF AMD
KDUJ 210430Z 2105/2124 20008KT 6SM -SHRA BR BKN020
     FM210600 22005KT 5SM -SHRA BR VCSH SCT009 OVC015
      TEMPO 2106/2107 OVC009
     FM210700 24006KT 4SM BR VCSH OVC006
     FM211400 27005KT 6SM BR OVC010
     FM211700 29006KT P6SM OVC015=



000
FTUS41 KPBZ 210400 AAA
TAFMGW
TAF AMD
KMGW 210428Z 2104/2124 20005KT P6SM -SHRA OVC050
     FM210600 21004KT 6SM -SHRA BR OVC025
     FM210800 22004KT 5SM BR VCSH OVC015
     FM211500 26006KT P6SM -SHRA OVC025
     FM212100 29007KT P6SM -SHRA BKN035=



000
FTUS41 KPBZ 210400 AAA
TAFMGW
TAF AMD
KMGW 210428Z 2104/2124 20005KT P6SM -SHRA OVC050
     FM210600 21004KT 6SM -SHRA BR OVC025
     FM210800 22004KT 5SM BR VCSH OVC015
     FM211500 26006KT P6SM -SHRA OVC025
     FM212100 29007KT P6SM -SHRA BKN035=



000
FTUS41 KPBZ 210300 AAA
TAFZZV
TAF AMD
KZZV 210311Z 2103/2124 19004KT P6SM -SHRA OVC035
     FM210600 25003KT 5SM BR VCSH SCT008 OVC015
      TEMPO 2107/2111 OVC008
     FM211500 30006KT P6SM OVC025
     FM212100 31008KT P6SM BKN035=



000
FTUS41 KPBZ 210300 AAA
TAFZZV
TAF AMD
KZZV 210311Z 2103/2124 19004KT P6SM -SHRA OVC035
     FM210600 25003KT 5SM BR VCSH SCT008 OVC015
      TEMPO 2107/2111 OVC008
     FM211500 30006KT P6SM OVC025
     FM212100 31008KT P6SM BKN035=



000
FTUS41 KPBZ 210300 AAA
TAFHLG
TAF AMD
KHLG 210310Z 2103/2124 22005KT 6SM -SHRA OVC035
     FM210600 23004KT 5SM BR VCSH SCT008 OVC015
      TEMPO 2108/2112 OVC008
     FM211500 28006KT P6SM -SHRA OVC025
     FM212100 29007KT P6SM -SHRA BKN035=



000
FTUS41 KPBZ 210300 AAA
TAFHLG
TAF AMD
KHLG 210310Z 2103/2124 22005KT 6SM -SHRA OVC035
     FM210600 23004KT 5SM BR VCSH SCT008 OVC015
      TEMPO 2108/2112 OVC008
     FM211500 28006KT P6SM -SHRA OVC025
     FM212100 29007KT P6SM -SHRA BKN035=



000
FTUS41 KPBZ 210300 AAA
TAFLBE
TAF AMD
KLBE 210307Z 2103/2124 21005KT 6SM -SHRA OVC035
     FM210600 22004KT 5SM -SHRA BR OVC015
     FM211500 26007KT P6SM -SHRA OVC025
     FM212100 28007KT P6SM -SHRA BKN035=



000
FTUS41 KPBZ 210300 AAA
TAFLBE
TAF AMD
KLBE 210307Z 2103/2124 21005KT 6SM -SHRA OVC035
     FM210600 22004KT 5SM -SHRA BR OVC015
     FM211500 26007KT P6SM -SHRA OVC025
     FM212100 28007KT P6SM -SHRA BKN035=



000
FTUS41 KPBZ 210300 AAA
TAFAGC
TAF AMD
KAGC 210306Z 2103/2124 21005KT 6SM -SHRA OVC035
     FM210500 22004KT 5SM BR VCSH SCT008 OVC015
      TEMPO 2108/2112 BKN008
     FM211500 29007KT P6SM -SHRA OVC025
     FM212100 29008KT P6SM -SHRA BKN035=



000
FTUS41 KPBZ 210300 AAA
TAFAGC
TAF AMD
KAGC 210306Z 2103/2124 21005KT 6SM -SHRA OVC035
     FM210500 22004KT 5SM BR VCSH SCT008 OVC015
      TEMPO 2108/2112 BKN008
     FM211500 29007KT P6SM -SHRA OVC025
     FM212100 29008KT P6SM -SHRA BKN035=



000
FTUS41 KPBZ 210300 AAA
TAFPIT
TAF AMD
KPIT 210301Z 2103/2206 21005KT 6SM -SHRA OVC035
     FM210500 22004KT 6SM BR VCSH SCT008 OVC015
      TEMPO 2108/2112 OVC008
     FM211500 28006KT P6SM -SHRA OVC025
     FM212100 29007KT P6SM -SHRA BKN035=



000
FTUS41 KPBZ 202300
TAFPIT
TAF
KPIT 202320Z 2100/2206 20005KT P6SM -SHRA OVC060
      TEMPO 2100/2102 4SM -SHRA BR
     FM210300 21005KT 6SM -SHRA OVC030
     FM210500 22004KT 6SM BR VCSH OVC015
      TEMPO 2108/2112 OVC008
     FM211500 28006KT P6SM -SHRA OVC025
     FM212100 29007KT P6SM -SHRA BKN035=



000
FTUS41 KPBZ 202300
TAFMGW
TAF
KMGW 202320Z 2100/2124 20005KT P6SM -SHRA OVC050
     FM210400 21004KT 6SM BR VCSH OVC030
     FM210800 22004KT 5SM BR VCSH OVC015
     FM211500 26006KT P6SM -SHRA OVC025
     FM212100 29007KT P6SM -SHRA BKN035=



000
FTUS41 KPBZ 202300
TAFZZV
TAF
KZZV 202320Z 2100/2124 19004KT P6SM -SHRA OVC050
     FM210200 22004KT 6SM BR VCSH OVC025
     FM210600 25003KT 5SM BR VCSH OVC015
      TEMPO 2107/2111 OVC008
     FM211500 30006KT P6SM OVC025
     FM212100 31008KT P6SM BKN035=



000
FTUS41 KPBZ 202300
TAFAGC
TAF
KAGC 202320Z 2100/2124 20005KT P6SM -SHRA OVC060
      TEMPO 2100/2102 4SM -SHRA BR
     FM210300 21005KT 6SM -SHRA OVC030
     FM210500 22004KT 6SM BR VCSH OVC015
      TEMPO 2108/2112 OVC008
     FM211500 29007KT P6SM -SHRA OVC025
     FM212100 29008KT P6SM -SHRA BKN035=



000
FTUS41 KPBZ 202300
TAFBVI
TAF
KBVI 202320Z 2100/2124 20005KT P6SM -SHRA OVC050
      TEMPO 2100/2102 4SM -SHRA BR
     FM210200 22004KT 5SM -SHRA BKN025
     FM210400 22004KT 6SM BR VCSH OVC015
     FM210700 VRB04KT 5SM BR VCSH OVC008
     FM211600 29007KT P6SM -SHRA OVC025
     FM212100 30007KT P6SM -SHRA OVC035
      AMD NOT SKED 2101/2111=



000
FTUS41 KPBZ 202300
TAFLBE
TAF
KLBE 202320Z 2100/2124 19004KT P6SM -SHRA OVC060
     FM210300 21005KT 6SM -SHRA OVC030
     FM210600 22004KT 5SM -SHRA BR OVC015
     FM211500 26007KT P6SM -SHRA OVC025
     FM212100 28007KT P6SM -SHRA BKN035=



000
FTUS41 KPBZ 202300
TAFDUJ
TAF
KDUJ 202320Z 2100/2124 20008KT P6SM -SHRA OVC060
      TEMPO 2101/2103 4SM -SHRA BR
     FM210400 22005KT 5SM BR VCSH OVC015
      TEMPO 2105/2107 OVC009
     FM210700 24006KT 4SM BR VCSH OVC006
     FM211400 27005KT 6SM BR OVC010
     FM211700 29006KT P6SM OVC015=



000
FTUS41 KPBZ 202300
TAFHLG
TAF
KHLG 202320Z 2100/2124 19008KT P6SM -SHRA OVC050
     FM210300 22005KT 6SM BR VCSH OVC025
     FM210600 23004KT 5SM BR VCSH OVC015
      TEMPO 2108/2112 OVC008
     FM211500 28006KT P6SM -SHRA OVC025
     FM212100 29007KT P6SM -SHRA BKN035=



000
FTUS41 KPBZ 202000 AAA
TAFPIT
TAF AMD
KPIT 202058Z 2021/2124 22010G16KT P6SM SCT050 OVC100
     FM202300 20005KT P6SM -SHRA OVC050
     FM210400 22004KT 5SM -SHRA BKN025
     FM210900 25006KT P6SM VCSH BKN015
     FM211500 28005KT P6SM -SHRA BKN035=



000
FTUS41 KPBZ 201800 AAA
TAFLBE
TAF AMD
KLBE 201841Z 2019/2118 22013G22KT P6SM OVC100
     FM210000 21008KT P6SM -SHRA OVC040
     FM210600 22004KT 5SM -SHRA BKN025=



000
FTUS41 KPBZ 201700
TAFPIT
TAF
KPIT 201723Z 2018/2124 22010KT P6SM SCT050 OVC100
     FM202300 20005KT P6SM -SHRA OVC050
     FM210400 22004KT 5SM -SHRA BKN025
     FM210900 25006KT P6SM VCSH BKN015
     FM211500 28005KT P6SM -SHRA BKN035=



000
FTUS41 KPBZ 201700
TAFAGC
TAF
KAGC 201723Z 2018/2118 22010KT P6SM FEW050 OVC100
     FM202300 20005KT P6SM -SHRA OVC050
     FM210400 22004KT 5SM -SHRA BKN025
     FM210900 25006KT P6SM VCSH BKN025=



000
FTUS41 KPBZ 201700
TAFHLG
TAF
KHLG 201723Z 2018/2118 21008KT P6SM OVC100
     FM202200 20005KT P6SM -SHRA OVC050
     FM210400 22004KT 5SM -SHRA BKN025
     FM210800 25006KT P6SM VCSH BKN025=



000
FTUS41 KPBZ 201700
TAFZZV
TAF
KZZV 201723Z 2018/2118 20008KT P6SM OVC100
     FM202100 20007KT P6SM -SHRA OVC050
     FM210300 25006KT P6SM VCSH BKN025=



000
FTUS41 KPBZ 201700
TAFLBE
TAF
KLBE 201723Z 2018/2118 22008KT P6SM OVC100
     FM210000 21008KT P6SM -SHRA OVC040
     FM210600 22004KT 5SM -SHRA BKN025=



000
FTUS41 KPBZ 201700
TAFMGW
TAF
KMGW 201723Z 2018/2118 20008KT P6SM OVC100
     FM210200 20005KT P6SM -SHRA OVC050
     FM210700 25006KT P6SM VCSH BKN025=



000
FTUS41 KPBZ 201700
TAFBVI
TAF
KBVI 201723Z 2018/2118 22008KT P6SM OVC100
     FM202200 20005KT P6SM -SHRA OVC050
     FM210300 22004KT 5SM -SHRA BKN025
     FM210900 25006KT P6SM VCSH BKN015=



000
FTUS41 KPBZ 201700
TAFDUJ
TAF
KDUJ 201723Z 2018/2118 20012G15KT P6SM OVC100
     FM202300 20008KT 6SM -SHRA OVC040
     FM210500 22005KT 5SM -SHRA OVC015
     FM210800 25006KT 5SM -SHRA OVC010=



000
FTUS41 KPBZ 201400 AAA
TAFPIT
TAF AMD
KPIT 201457Z 2015/2118 22010KT P6SM SCT050 BKN100
     FM202300 20005KT P6SM -SHRA OVC050
     FM210600 25005KT P6SM VCSH BKN025=



000
FTUS41 KPBZ 201100
TAFZZV
TAF
KZZV 201128Z 2012/2112 20003KT P6SM BKN200
     FM201400 21010KT P6SM BKN100
     FM202000 21008KT P6SM VCSH BKN050
     FM210400 23005KT P6SM VCSH BKN025=



000
FTUS41 KPBZ 201100
TAFHLG
TAF
KHLG 201128Z 2012/2112 20003KT P6SM OVC200
     FM201500 22010KT P6SM BKN100
     FM202300 20005KT P6SM -SHRA OVC050=



000
FTUS41 KPBZ 201100
TAFAGC
TAF
KAGC 201128Z 2012/2112 20003KT P6SM OVC200
     FM201500 22010KT P6SM BKN100
     FM202300 20005KT P6SM -SHRA OVC050=



000
FTUS41 KPBZ 201100
TAFLBE
TAF
KLBE 201128Z 2012/2112 20003KT P6SM BKN200
     FM201500 22010KT P6SM BKN100
     FM210000 21008KT P6SM -SHRA OVC040=



000
FTUS41 KPBZ 201100
TAFBVI
TAF
KBVI 201128Z 2012/2112 20003KT P6SM OVC200
     FM201500 22010KT P6SM BKN100
     FM202200 20005KT P6SM -SHRA OVC040
     FM210400 25005KT P6SM VCSH BKN025=



000
FTUS41 KPBZ 201100
TAFDUJ
TAF
KDUJ 201128Z 2012/2112 20003KT P6SM OVC200
     FM201400 21010KT P6SM BKN100
     FM202200 20008KT 6SM -SHRA OVC040
     FM210200 22005KT 5SM -SHRA OVC015=



000
FTUS41 KPBZ 201100
TAFMGW
TAF
KMGW 201128Z 2012/2112 19003KT P6SM OVC200
     FM201500 22008KT P6SM BKN100
     FM210000 20005KT P6SM VCSH OVC050=



000
FTUS41 KPBZ 201100
TAFPIT
TAF
KPIT 201128Z 2012/2118 20003KT P6SM OVC150
     FM201500 22010KT P6SM BKN100
     FM202300 20005KT P6SM -SHRA OVC050
     FM210600 25005KT P6SM VCSH BKN025=



000
FTUS41 KPBZ 200800 AAA
TAFPIT
TAF AMD
KPIT 200855Z 2009/2112 20003KT P6SM OVC150
     FM201500 22010KT P6SM BKN100
     FM202300 20005KT P6SM -SHRA OVC050
     FM210600 25005KT P6SM VCSH BKN025=



    US Dept of Commerce
    National Oceanic and Atmospheric Administration
    National Weather Service
    1325 East West Highway
    Silver Spring, MD 20910
    Page Author: NWS Internet Services Team
Disclaimer
Information Quality
Credits
Glossary
Privacy Policy
Freedom of Information Act (FOIA)
About Us
Career Opportunities